METAR Data
IDs: Format: Raw Decoded Include TAF

Data at: 1804 UTC 16 Oct 2021

KGGG 161753Z 01010G16KT 10SM CLR 22/01 A3031 RMK AO2 SLP261 T02220006 10228 20089 58008
KGGG 161653Z 01008G18KT 10SM CLR 22/02 A3033 RMK AO2 SLP269 T02170022
KGGG 161553Z 36006KT 10SM CLR 21/05 A3034 RMK AO2 SLP271 T02060050
KGGG 161453Z 36007KT 10SM CLR 18/07 A3034 RMK AO2 SLP269 T01780067 52017
KGGG 161353Z 35004KT 10SM CLR 14/08 A3032 RMK AO2 SLP265 T01390083
KGGG 161253Z 35005KT 10SM CLR 10/07 A3030 RMK AO2 SLP259 T01000072
KGGG 161153Z 33005KT 10SM CLR 09/07 A3028 RMK AO2 SLP253 T00890067 10156 20089 53015
KGGG 161053Z 34004KT 10SM CLR 10/07 A3026 RMK AO2 SLP243 T01000067
KGGG 160953Z AUTO 35003KT 10SM CLR 11/07 A3025 RMK AO2 SLP238 T01110072
KGGG 160853Z AUTO 33004KT 10SM CLR 12/07 A3024 RMK AO2 SLP236 T01170067 51011
KGGG 160753Z AUTO 35004KT 10SM CLR 13/07 A3024 RMK AO2 SLP233 T01330067
KGGG 160653Z AUTO 36006KT 10SM CLR 16/07 A3022 RMK AO2 SLP228 T01560067
KGGG 160553Z AUTO 35005KT 10SM CLR 15/07 A3021 RMK AO2 SLP224 T01500072 10228 20150 403110150 51027
KGGG 160453Z AUTO 35008KT 10SM CLR 17/07 A3019 RMK AO2 SLP216 T01720067
KGGG 160353Z AUTO 36009KT 10SM CLR 18/07 A3016 RMK AO2 SLP207 T01830067
KGGG 160253Z AUTO 34013KT 10SM CLR 19/08 A3013 RMK AO2 SLP197 T01890083 51037
KGGG 160153Z 35009KT 10SM CLR 20/12 A3010 RMK AO2 SLP188 T02000117
KGGG 160053Z 34009KT 10SM CLR 21/13 A3006 RMK AO2 SLP173 T02110133
KGGG 152353Z 33016G24KT 10SM CLR 23/14 A3002 RMK AO2 PK WND 32026/2303 SLP159 T02280144 10311 20228 53033
KGGG 152253Z 34014G23KT 10SM SCT035 26/17 A2997 RMK AO2 SLP141 T02560167
KGGG 152153Z 33018G24KT 10SM SCT040 28/18 A2994 RMK AO2 SLP131 T02830183
KGGG 152053Z 29011KT 10SM BKN034 30/19 A2992 RMK AO2 SLP124 T03000194 55002
KGGG 151953Z 29017G23KT 10SM BKN032 30/21 A2991 RMK AO2 SLP121 T03000206
KGGG 151853Z 27010KT 10SM BKN030 31/21 A2991 RMK AO2 SLP121 T03060211
KGGG 151753Z 25009KT 10SM BKN033 29/21 A2993 RMK AO2 SLP127 T02890206 10306 20233 58000
KGGG 151653Z COR 23012KT 10SM SCT030 30/21 A2993 RMK AO2 SLP128 T03000206
KGGG 151642Z 23009KT 10SM SCT019 29/21 A2993 RMK AO2 T02940206
KGGG 151553Z 24009KT 10SM BKN019 28/22 A2993 RMK AO2 SLP129 T02780217
KGGG 151453Z 23012KT 10SM BKN015 BKN032 26/22 A2993 RMK AO2 SLP128 T02560222 53015
KGGG 151353Z 21007KT 10SM BKN012 OVC022 24/22 A2991 RMK AO2 SLP123 T02440222
KGGG 151338Z 21007KT 10SM BKN012 24/22 A2990 RMK AO2 T02390222
KGGG 151308Z 18008KT 10SM SCT023 23/22 A2988 RMK AO2 T02330217
KGGG 151253Z 19007KT 10SM BKN021 23/22 A2989 RMK AO2 SLP115 T02330217
KGGG 151201Z 19006KT 10SM BKN016 OVC022 23/22 A2988 RMK AO2 T02330222
KGGG 151153Z 20006KT 10SM BKN014 OVC019 23/22 A2988 RMK AO2 SLP112 70006 T02330222 10233 20217 53007
KGGG 151120Z 21005KT 10SM SCT009 OVC019 23/22 A2988 RMK AO2 T02330217
KGGG 151109Z 21006KT 10SM BKN009 OVC019 23/22 A2987 RMK AO2 CIG 007V015 T02330222
KGGG 151053Z AUTO 20004KT 10SM OVC011 23/22 A2987 RMK AO2 SLP109 T02330222
KGGG 151020Z AUTO 17005KT 10SM OVC010 23/22 A2986 RMK AO2 CIG 004V012 T02280217
KGGG 150953Z AUTO 18005KT 10SM OVC005 23/22 A2986 RMK AO2 CIG 004V008 SLP106 T02280217
KGGG 150934Z AUTO 18004KT 10SM BKN009 23/21 A2986 RMK AO2 CIG 006V012 T02280211
KGGG 150926Z AUTO 18004KT 10SM SCT009 BKN033 22/21 A2986 RMK AO2 T02220211
KGGG 150853Z AUTO 17004KT 10SM SCT028 22/21 A2986 RMK AO2 SLP106 T02170211 58008
KGGG 150827Z AUTO 18004KT 10SM SCT020 22/21 A2986 RMK AO2 T02220211
KGGG 150753Z AUTO 18005KT 10SM SCT021 BKN028 22/21 A2987 RMK AO2 SLP109 T02220211
KGGG 150653Z AUTO 17005KT 10SM FEW037 22/21 A2988 RMK AO2 SLP111 T02220211